Time;durP1;ratioP1;P1;durP2;ratioP2;P2;SDS_P1;SDS_P2;PMS_P1;PMS_P2;Temp;Humidity;BMP_temperature;BMP_pressure;BME280_temperature;BME280_humidity;BME280_pressure;Samples;Min_cycle;Max_cycle;Signal;HPM_P1;HPM_P2
2022/12/21 00:04:00;;;;;;;62.57;28.33;;;;;;;3.60;97.27;100393.42;3489962;82;98779;-89
2022/12/21 00:09:05;;;;;;;53.00;24.65;;;;;;;3.61;97.16;100378.69;3496791;83;32020;-89
2022/12/21 00:14:08;;;;;;;62.73;26.02;;;;;;;3.57;97.23;100366.31;3488244;83;98801;-88
2022/12/21 00:19:14;;;;;;;58.05;25.43;;;;;;;3.59;97.34;100377.66;3461215;84;32468;-87
2022/12/21 00:24:15;;;;;;;54.90;26.67;;;;;;;3.58;97.12;100372.53;3455440;84;99013;-88
2022/12/21 00:29:16;;;;;;;54.87;25.70;;;;;;;3.57;97.00;100380.47;3461805;84;26291;-87
2022/12/21 00:34:21;;;;;;;51.20;25.00;;;;;;;3.58;97.00;100380.70;3455568;84;98736;-89
2022/12/21 00:39:21;;;;;;;53.87;25.13;;;;;;;3.58;97.07;100357.56;3460291;84;27396;-89
2022/12/21 00:44:22;;;;;;;54.07;27.50;;;;;;;3.59;97.12;100344.19;3455980;84;99026;-87
2022/12/21 00:49:23;;;;;;;49.83;22.97;;;;;;;3.59;97.10;100359.97;3463017;84;26169;-89
2022/12/21 00:54:24;;;;;;;48.77;23.07;;;;;;;3.60;96.98;100348.53;3456015;82;98571;-87
2022/12/21 00:59:24;;;;;;;49.47;23.20;;;;;;;3.60;96.91;100354.75;3462009;84;25866;-90
2022/12/21 01:04:25;;;;;;;45.70;21.33;;;;;;;3.61;96.94;100339.23;3456219;84;98715;-88
2022/12/21 01:09:26;;;;;;;50.73;22.67;;;;;;;3.61;96.80;100335.92;3462530;84;26142;-89
2022/12/21 01:14:26;;;;;;;48.57;23.63;;;;;;;3.61;96.62;100341.37;3461590;83;98743;-88
2022/12/21 01:19:27;;;;;;;48.13;23.45;;;;;;;3.59;96.69;100351.80;3497458;83;33752;-86
2022/12/21 01:24:28;;;;;;;45.73;21.73;;;;;;;3.58;96.49;100352.94;3491846;82;98289;-87
2022/12/21 01:29:29;;;;;;;48.53;22.37;;;;;;;3.45;96.38;100312.39;3498140;83;33186;-90
2022/12/21 01:34:30;;;;;;;47.83;23.80;;;;;;;3.45;96.38;100312.39;3491812;83;98731;-88
2022/12/21 01:39:30;;;;;;;46.90;22.97;;;;;;;3.53;96.41;100337.36;3482223;83;33178;-87
2022/12/21 01:45:14;;;;;;;46.37;22.00;;;;;;;3.50;96.35;100310.83;3490684;83;98661;-87
2022/12/21 01:50:39;;;;;;;48.43;22.63;;;;;;;3.48;96.31;100297.56;3497896;83;26484;-87
2022/12/21 01:55:42;;;;;;;47.67;22.15;;;;;;;3.45;96.32;100291.99;3490755;82;98723;-87
2022/12/21 02:00:43;;;;;;;50.00;22.67;;;;;;;3.43;96.21;100296.95;3498008;83;26626;-89
2022/12/21 02:05:57;;;;;;;50.97;21.97;;;;;;;3.43;96.37;100282.80;3491073;82;98648;-89
2022/12/21 02:11:00;;;;;;;47.07;21.47;;;;;;;3.42;96.50;100289.92;3489485;83;98947;-88
2022/12/21 02:16:18;;;;;;;48.73;22.83;;;;;;;3.39;96.46;100287.30;3485630;83;26521;-88
2022/12/21 02:21:27;;;;;;;45.57;20.83;;;;;;;3.37;96.51;100316.77;3454037;82;98927;-89
2022/12/21 02:27:00;;;;;;;45.43;20.83;;;;;;;3.33;96.48;100303.59;3462108;84;25834;-89
2022/12/21 02:32:27;;;;;;;51.00;22.73;;;;;;;3.30;96.54;100308.35;3455436;84;98838;-89
2022/12/21 02:37:37;;;;;;;;;;;;;;;3.30;96.56;100286.59;3462808;84;25751;-89
2022/12/21 02:48:28;;;;;;;48.63;22.23;;;;;;;3.28;96.64;100273.88;3461762;84;25810;-89
2022/12/21 02:53:34;;;;;;;43.63;20.93;;;;;;;3.23;96.69;100262.41;3454766;84;98402;-87
2022/12/21 02:58:34;;;;;;;47.93;20.83;;;;;;;3.29;96.59;100284.98;3461102;84;26313;-89
2022/12/21 03:04:26;;;;;;;43.57;19.03;;;;;;;3.31;96.70;100280.57;3455986;83;98912;-86
2022/12/21 03:09:38;;;;;;;45.57;21.27;;;;;;;3.31;96.58;100279.21;3461176;84;26021;-87
2022/12/21 03:15:08;;;;;;;42.58;18.92;;;;;;;3.34;96.60;100267.68;3454101;83;98561;-89
2022/12/21 03:20:25;;;;;;;43.90;21.20;;;;;;;3.33;96.66;100265.52;3462199;84;26309;-88
2022/12/21 03:25:34;;;;;;;40.90;19.45;;;;;;;3.33;96.66;100276.39;3452310;84;98548;-89
2022/12/21 03:30:43;;;;;;;40.57;19.10;;;;;;;3.34;96.69;100283.42;3460746;84;25806;-90
2022/12/21 03:36:01;;;;;;;41.90;19.90;;;;;;;3.34;96.67;100275.27;3454560;84;98657;-89
2022/12/21 03:41:07;;;;;;;42.50;20.83;;;;;;;3.36;96.71;100262.70;3456081;83;98904;-87
2022/12/21 03:46:18;;;;;;;42.90;19.00;;;;;;;3.35;96.67;100261.11;3461359;84;25980;-89
2022/12/21 03:51:42;;;;;;;40.20;18.95;;;;;;;3.33;96.80;100257.94;3450428;84;98866;-89
2022/12/21 03:56:43;;;;;;;44.17;19.70;;;;;;;3.33;96.85;100257.35;3461438;84;26022;-90
2022/12/21 04:01:55;;;;;;;40.80;18.17;;;;;;;3.34;96.89;100245.92;3455363;83;98476;-89
2022/12/21 04:07:00;;;;;;;40.88;19.20;;;;;;;3.33;96.83;100247.05;3460498;84;25791;-89
2022/12/21 04:17:20;;;;;;;42.10;18.63;;;;;;;3.37;96.85;100237.89;3477227;83;25846;-89
2022/12/21 04:32:59;;;;;;;41.93;18.50;;;;;;;3.45;96.82;100221.27;3490141;82;98725;-89
2022/12/21 04:38:00;;;;;;;39.50;19.30;;;;;;;3.46;96.83;100218.77;3497742;83;33833;-88
2022/12/21 04:43:03;;;;;;;39.90;17.97;;;;;;;3.49;96.69;100207.23;3491606;82;98713;-87
2022/12/21 04:48:04;;;;;;;37.13;17.43;;;;;;;3.54;96.73;100206.98;3497621;83;26573;-88
2022/12/21 04:53:05;;;;;;;39.93;18.03;;;;;;;3.55;96.75;100203.94;3489477;83;98808;-88
2022/12/21 04:58:05;;;;;;;40.23;18.83;;;;;;;3.57;96.79;100196.26;3496329;83;33148;-88
2022/12/21 05:03:06;;;;;;;41.77;17.73;;;;;;;3.61;96.80;100187.62;3491785;82;99044;-89
2022/12/21 05:08:07;;;;;;;39.37;16.87;;;;;;;3.63;96.99;100196.83;3498023;83;33199;-88
2022/12/21 05:13:08;;;;;;;34.67;17.63;;;;;;;3.66;97.05;100202.97;3491860;83;98988;-88
2022/12/21 05:18:09;;;;;;;37.97;17.43;;;;;;;3.68;97.10;100200.70;3500032;83;32026;-88
2022/12/21 05:23:09;;;;;;;34.50;16.30;;;;;;;3.71;97.17;100196.73;3492102;83;98591;-88
2022/12/21 05:28:10;;;;;;;43.10;17.57;;;;;;;3.73;96.98;100191.77;3497700;83;31648;-89
2022/12/21 05:33:11;;;;;;;38.57;18.07;;;;;;;3.75;96.80;100194.93;3491842;82;98867;-87
2022/12/21 05:38:12;;;;;;;33.40;16.07;;;;;;;3.77;96.76;100181.77;3497525;83;25839;-90
2022/12/21 05:43:13;;;;;;;39.43;17.53;;;;;;;3.79;96.71;100195.86;3491267;82;99059;-89
2022/12/21 05:48:14;;;;;;;35.53;17.23;;;;;;;3.69;96.62;100173.70;3497801;83;31636;-90
2022/12/21 05:53:14;;;;;;;40.03;16.32;;;;;;;3.80;96.78;100190.64;3491700;83;98500;-88
2022/12/21 05:58:15;;;;;;;41.60;18.80;;;;;;;3.83;96.92;100188.58;3497942;83;30800;-87
2022/12/21 06:03:16;;;;;;;41.50;18.57;;;;;;;3.84;96.88;100190.75;3472646;82;98846;-90
2022/12/21 06:08:17;;;;;;;41.30;18.40;;;;;;;3.85;96.89;100182.81;3496118;83;35377;-86
2022/12/21 06:13:17;;;;;;;40.97;17.97;;;;;;;3.86;96.89;100181.67;3490002;83;98540;-89
2022/12/21 06:18:18;;;;;;;41.70;19.33;;;;;;;3.86;96.98;100179.75;3497199;83;34846;-89
2022/12/21 06:23:19;;;;;;;41.30;18.83;;;;;;;3.88;96.97;100169.89;3489439;83;98920;-88
2022/12/21 06:28:20;;;;;;;40.53;18.70;;;;;;;3.88;96.86;100178.06;3497778;83;34832;-88
2022/12/21 06:33:22;;;;;;;44.77;19.53;;;;;;;3.91;96.78;100171.92;3489182;83;98790;-88
2022/12/21 06:38:24;;;;;;;42.03;19.27;;;;;;;3.91;96.81;100175.45;3495222;83;35047;-90
2022/12/21 06:43:28;;;;;;;38.97;19.13;;;;;;;3.93;96.70;100181.93;3488339;83;98721;-90
2022/12/21 06:48:31;;;;;;;39.17;18.57;;;;;;;3.95;96.71;100195.43;3492475;83;26882;-88
2022/12/21 06:53:36;;;;;;;42.83;18.52;;;;;;;3.97;96.72;100193.16;3486296;82;98840;-89
2022/12/21 06:58:37;;;;;;;36.70;17.92;;;;;;;3.99;96.81;100190.88;3493367;83;31062;-87
2022/12/21 07:03:43;;;;;;;42.33;18.77;;;;;;;4.01;96.68;100200.88;3489145;82;98737;-88
2022/12/21 07:08:45;;;;;;;44.73;19.00;;;;;;;4.03;96.71;100205.97;3495229;83;29795;-88
2022/12/21 07:13:49;;;;;;;39.03;17.90;;;;;;;4.03;96.71;100197.23;3489921;82;98689;-89
2022/12/21 07:18:50;;;;;;;43.10;21.20;;;;;;;4.04;96.71;100201.55;3476293;83;26974;-89
2022/12/21 07:23:50;;;;;;;39.37;18.43;;;;;;;4.06;96.78;100203.94;3454058;84;98519;-88
2022/12/21 07:28:54;;;;;;;41.50;20.07;;;;;;;4.06;96.73;100199.85;3459705;84;35376;-88
2022/12/21 07:33:55;;;;;;;40.60;18.83;;;;;;;4.07;96.78;100206.33;3450827;84;98914;-88
2022/12/21 07:38:56;;;;;;;44.50;19.27;;;;;;;4.07;96.84;100206.33;3460456;84;35519;-87
2022/12/21 07:43:57;;;;;;;39.60;19.23;;;;;;;4.10;96.75;100205.63;3453746;84;98856;-87
2022/12/21 07:48:58;;;;;;;46.07;21.17;;;;;;;4.10;96.77;100207.00;3459760;84;34781;-89
2022/12/21 07:53:58;;;;;;;40.27;20.03;;;;;;;4.12;96.79;100209.39;3452290;84;98985;-90
2022/12/21 07:59:00;;;;;;;40.37;18.03;;;;;;;4.11;97.26;100197.72;3452337;84;34934;-88
2022/12/21 08:04:01;;;;;;;36.27;17.93;;;;;;;4.11;97.57;100197.72;3448885;84;98662;-89
2022/12/21 08:09:03;;;;;;;41.07;19.83;;;;;;;4.10;97.89;100205.63;3461162;84;34842;-89
2022/12/21 08:14:04;;;;;;;40.67;18.97;;;;;;;4.06;98.23;100211.55;3450897;84;98646;-89
2022/12/21 08:19:05;;;;;;;41.67;18.03;;;;;;;4.07;98.57;100206.33;3452869;83;34799;-91
2022/12/21 08:24:06;;;;;;;35.63;17.90;;;;;;;4.06;98.98;100217.55;3485472;83;98799;-89
2022/12/21 08:29:07;;;;;;;42.64;19.92;;;;;;;4.06;99.35;100214.28;3493863;83;34778;-88
2022/12/21 08:34:07;;;;;;;44.18;18.95;;;;;;;4.07;99.56;100215.86;3488995;83;98926;-90
2022/12/21 08:39:08;;;;;;;47.70;21.17;;;;;;;4.10;99.75;100221.20;3495847;83;25830;-88
2022/12/21 08:44:09;;;;;;;38.80;19.20;;;;;;;4.10;99.89;100221.20;3490090;83;98697;-90
2022/12/21 08:49:10;;;;;;;42.27;19.23;;;;;;;4.12;100.00;100217.55;3491993;83;32439;-85
2022/12/21 08:54:11;;;;;;;39.80;18.83;;;;;;;4.10;100.00;100215.16;3487793;83;98915;-87
2022/12/21 08:59:11;;;;;;;47.27;21.93;;;;;;;4.12;100.00;100219.72;3494179;83;32464;-88
2022/12/21 09:04:12;;;;;;;44.30;22.43;;;;;;;4.13;100.00;100216.42;3487126;83;98980;-87
2022/12/21 09:09:13;;;;;;;42.73;19.87;;;;;;;4.12;100.00;100210.75;3492848;83;32479;-87
2022/12/21 09:14:14;;;;;;;43.53;19.90;;;;;;;4.15;100.00;100225.84;3491305;83;99014;-89
2022/12/21 09:19:15;;;;;;;42.53;20.27;;;;;;;4.15;100.00;100212.22;3498490;83;26794;-89
2022/12/21 09:24:16;;;;;;;38.33;19.53;;;;;;;4.17;100.00;100217.34;3499473;83;99161;-87
2022/12/21 09:29:16;;;;;;;43.13;21.83;;;;;;;4.19;100.00;100201.44;3504987;82;26408;-89
2022/12/21 09:34:18;;;;;;;43.03;19.73;;;;;;;4.22;100.00;100207.03;3499113;83;98843;-87
2022/12/21 09:39:19;;;;;;;40.23;19.73;;;;;;;4.27;100.00;100204.63;3501300;83;26547;-88
2022/12/21 09:44:44;;;;;;;40.93;20.03;;;;;;;4.31;100.00;100202.83;3501684;82;99053;-88
2022/12/21 09:49:59;;;;;;;45.58;22.27;;;;;;;4.33;100.00;100199.19;3503755;82;32459;-89
2022/12/21 09:55:08;;;;;;;44.10;19.67;;;;;;;4.40;100.00;100204.30;3483286;84;99021;-87
2022/12/21 10:00:22;;;;;;;42.55;19.00;;;;;;;4.46;100.00;100211.66;3503400;83;31900;-88
2022/12/21 10:06:11;;;;;;;46.08;22.32;;;;;;;4.49;100.00;100204.98;3495845;82;98939;-89
2022/12/21 10:11:39;;;;;;;44.30;20.90;;;;;;;4.54;100.00;100202.00;3297071;86;99112;-90
2022/12/21 10:16:51;;;;;;;42.77;21.70;;;;;;;4.60;100.00;100199.84;3466320;82;27290;-87
2022/12/21 10:22:06;;;;;;;49.98;22.30;;;;;;;4.63;100.00;100199.18;3466773;82;99011;-88
2022/12/21 10:27:14;;;;;;;41.57;20.17;;;;;;;4.65;100.00;100191.44;3493340;83;46320;-88
2022/12/21 10:32:15;;;;;;;45.90;22.40;;;;;;;4.68;100.00;100188.02;3490886;83;98733;-86
2022/12/21 10:37:19;;;;;;;46.77;21.97;;;;;;;4.69;100.00;100178.72;3495688;83;26442;-88
2022/12/21 10:42:25;;;;;;;45.57;22.63;;;;;;;4.75;100.00;100169.17;3486546;82;98886;-89
2022/12/21 10:47:26;;;;;;;49.18;23.40;;;;;;;4.78;100.00;100164.38;3493852;83;27567;-87
2022/12/21 10:52:40;;;;;;;48.10;23.50;;;;;;;4.82;100.00;100158.46;3490830;82;99427;-85
2022/12/21 10:57:41;;;;;;;45.35;23.65;;;;;;;4.83;100.00;100168.23;3495319;83;31524;-88
2022/12/21 11:02:45;;;;;;;50.07;25.53;;;;;;;4.87;100.00;100158.22;3484825;83;99139;-89
2022/12/21 11:07:47;;;;;;;54.23;25.57;;;;;;;4.87;100.00;100158.22;3493352;83;29675;-89
2022/12/21 11:12:55;;;;;;;52.23;25.37;;;;;;;4.86;100.00;100153.33;3489766;82;99020;-90
2022/12/21 11:17:55;;;;;;;51.33;24.13;;;;;;;4.87;100.00;100144.03;3494676;83;28224;-89
2022/12/21 11:23:00;;;;;;;56.60;25.17;;;;;;;4.90;100.00;100132.42;3489189;82;99278;-87
2022/12/21 11:28:03;;;;;;;59.70;27.47;;;;;;;4.90;100.00;100132.42;3476798;83;27385;-89
2022/12/21 11:33:06;;;;;;;53.40;24.87;;;;;;;4.92;100.00;100136.95;3489145;82;99010;-89
2022/12/21 11:38:15;;;;;;;62.95;28.80;;;;;;;4.95;100.00;100129.45;3495508;83;31588;-87
2022/12/21 11:43:16;;;;;;;52.00;24.63;;;;;;;5.00;100.00;100133.86;3489116;83;99065;-88
2022/12/21 11:48:56;;;;;;;50.73;24.97;;;;;;;5.00;100.00;100126.48;3495694;83;25831;-89
2022/12/21 11:54:15;;;;;;;49.00;25.40;;;;;;;5.01;100.00;100118.52;3475426;83;99000;-89
2022/12/21 11:59:51;;;;;;;53.52;27.45;;;;;;;5.05;100.00;100113.16;3492647;83;31583;-88
2022/12/21 12:05:07;;;;;;;41.23;21.47;;;;;;;5.08;100.00;100107.80;3490777;83;98786;-89
2022/12/21 12:10:25;;;;;;;57.60;26.87;;;;;;;5.15;100.00;100094.93;3494705;83;31627;-89
2022/12/21 12:16:03;;;;;;;56.48;26.23;;;;;;;5.19;100.00;100099.92;3463688;83;99069;-89
2022/12/21 12:21:32;;;;;;;51.83;25.73;;;;;;;5.25;100.00;100099.88;3469421;82;99069;-88
2022/12/21 12:27:18;;;;;;;48.27;25.50;;;;;;;5.28;100.00;100097.80;3458536;84;27650;-88
2022/12/21 12:33:02;;;;;;;49.83;25.20;;;;;;;5.31;100.00;100091.11;3449301;84;98943;-89
2022/12/21 12:38:25;;;;;;;58.35;25.50;;;;;;;5.36;100.00;100095.50;3459421;84;31558;-89
2022/12/21 12:44:10;;;;;;;51.95;25.90;;;;;;;5.38;100.00;100092.64;3454575;84;99177;-89
2022/12/21 12:49:41;;;;;;;65.20;31.00;;;;;;;5.41;100.00;100100.11;3435106;84;29314;-89
2022/12/21 12:55:02;;;;;;;51.02;23.85;;;;;;;5.43;100.00;100091.58;3452621;82;99036;-87
2022/12/21 13:00:12;;;;;;;43.87;22.20;;;;;;;5.46;100.00;100088.16;3459502;84;31839;-88
2022/12/21 13:05:38;;;;;;;44.30;20.48;;;;;;;5.44;100.00;100081.69;3452779;83;98471;-87
2022/12/21 13:10:54;;;;;;;40.13;21.10;;;;;;;5.43;100.00;100086.93;3459679;84;28616;-86
2022/12/21 13:16:27;;;;;;;43.63;23.30;;;;;;;5.43;100.00;100092.39;3455492;84;98570;-86
2022/12/21 13:21:32;;;;;;;62.70;31.45;;;;;;;5.42;100.00;100093.53;3471851;82;98958;-86
2022/12/21 13:26:39;;;;;;;58.65;26.93;;;;;;;5.42;100.00;100092.73;3493284;83;33690;-89
2022/12/21 13:32:04;;;;;;;86.42;36.60;;;;;;;5.39;100.00;100091.50;3485548;82;99217;-87
2022/12/21 13:37:10;;;;;;;58.30;28.42;;;;;;;5.38;100.00;100094.56;3495030;83;32475;-87
2022/12/21 13:42:16;;;;;;;65.42;30.23;;;;;;;5.36;100.00;100099.59;3489336;82;99063;-87
2022/12/21 13:47:18;;;;;;;73.55;32.85;;;;;;;5.32;100.00;100106.88;3477939;83;29395;-87
2022/12/21 13:52:50;;;;;;;64.47;31.15;;;;;;;5.27;100.00;100099.75;3488690;83;99062;-87
2022/12/21 13:58:19;;;;;;;64.22;29.00;;;;;;;5.23;100.00;100089.31;3493477;83;31992;-87
2022/12/21 14:03:46;;;;;;;54.38;27.40;;;;;;;5.15;100.00;100091.64;3488574;83;98972;-87
2022/12/21 14:09:37;;;;;;;69.03;30.80;;;;;;;5.12;100.00;100106.55;3494659;83;28200;-87
2022/12/21 14:15:14;;;;;;;63.55;29.50;;;;;;;5.10;100.00;100112.35;3489124;82;98697;-87
2022/12/21 14:20:33;;;;;;;64.85;28.42;;;;;;;5.06;100.00;100108.72;3484866;83;27370;-86
2022/12/21 14:25:40;;;;;;;66.22;30.00;;;;;;;5.04;100.00;100101.47;3452308;84;98699;-87
2022/12/21 14:31:12;;;;;;;59.77;29.63;;;;;;;5.01;100.00;100102.16;3459139;84;27449;-87
2022/12/21 14:36:30;;;;;;;71.33;30.80;;;;;;;4.99;100.00;100105.00;3458502;84;33060;-86
2022/12/21 14:41:38;;;;;;;79.17;34.37;;;;;;;4.97;100.00;100105.34;3449372;83;99002;-88
2022/12/21 14:46:44;;;;;;;76.63;34.10;;;;;;;4.94;100.00;100111.51;3457379;84;28724;-88
2022/12/21 14:51:56;;;;;;;76.60;33.37;;;;;;;4.90;100.00;100117.42;3431283;84;99129;-88
2022/12/21 14:57:12;;;;;;;72.17;31.60;;;;;;;4.90;100.00;100124.80;3458312;84;29753;-87
2022/12/21 15:02:30;;;;;;;69.95;32.03;;;;;;;4.86;100.00;100121.97;3450795;84;98932;-86
2022/12/21 15:07:49;;;;;;;69.47;31.13;;;;;;;4.84;100.00;100128.36;3458573;84;29597;-86
2022/12/21 15:12:52;;;;;;;69.95;30.75;;;;;;;4.83;100.00;100132.78;3453959;82;99166;-86
2022/12/21 15:17:53;;;;;;;68.78;28.00;;;;;;;4.81;100.00;100124.16;3460139;84;33024;-87
2022/12/21 15:22:54;;;;;;;72.40;29.27;;;;;;;4.78;100.00;100120.75;3473513;83;98687;-90
2022/12/21 15:28:18;;;;;;;68.63;30.17;;;;;;;4.79;100.00;100127.79;3491085;83;26511;-88
2022/12/21 15:33:27;;;;;;;69.55;31.50;;;;;;;4.78;100.00;100131.10;3488112;82;99081;-87
2022/12/21 15:38:47;;;;;;;72.97;31.17;;;;;;;4.77;100.00;100125.44;3467098;84;26233;-87
2022/12/21 15:44:26;;;;;;;63.73;28.03;;;;;;;4.75;100.00;100126.33;3488320;83;99019;-88
2022/12/21 15:49:40;;;;;;;59.13;25.45;;;;;;;4.76;100.00;100121.69;3491978;83;29657;-90
2022/12/21 15:54:44;;;;;;;63.05;27.35;;;;;;;4.75;100.00;100119.52;3492232;82;98668;-88
2022/12/21 15:59:48;;;;;;;59.83;25.97;;;;;;;4.76;100.00;100110.19;3497495;83;27958;-90
2022/12/21 16:04:51;;;;;;;59.40;27.30;;;;;;;4.76;100.00;100104.73;3489363;82;99112;-90
2022/12/21 16:10:05;;;;;;;66.35;31.27;;;;;;;4.77;100.00;100097.36;3493030;83;32314;-88
2022/12/21 16:15:39;;;;;;;61.48;29.75;;;;;;;4.78;100.00;100098.95;3482976;82;98963;-88
2022/12/21 16:20:58;;;;;;;58.13;28.37;;;;;;;4.77;100.00;100091.36;3495351;83;27547;-88
2022/12/21 16:26:00;;;;;;;57.37;27.53;;;;;;;4.78;100.00;100083.95;3499723;83;29683;-88
2022/12/21 16:31:25;;;;;;;52.78;27.15;;;;;;;4.79;100.00;100086.89;3490914;83;99097;-88
2022/12/21 16:36:28;;;;;;;54.10;24.77;;;;;;;4.80;100.00;100077.02;3495702;83;29249;-87
2022/12/21 16:41:29;;;;;;;51.80;24.70;;;;;;;4.81;100.00;100061.47;3489197;82;99146;-88
2022/12/21 16:46:51;;;;;;;45.97;24.83;;;;;;;4.82;100.00;100065.77;3493684;83;25861;-88
2022/12/21 16:51:54;;;;;;;48.28;24.65;;;;;;;4.83;100.00;100076.34;3489061;82;99457;-88
2022/12/21 16:56:59;;;;;;;47.80;23.67;;;;;;;4.82;100.00;100075.31;3495935;83;28633;-89
2022/12/21 17:02:18;;;;;;;48.93;25.37;;;;;;;4.82;100.00;100090.30;3488338;82;99240;-88
2022/12/21 17:07:33;;;;;;;49.70;24.87;;;;;;;4.82;100.00;100087.58;3496306;83;27512;-87
2022/12/21 17:12:39;;;;;;;48.15;24.82;;;;;;;4.81;100.00;100090.86;3486717;82;98940;-87
2022/12/21 17:17:43;;;;;;;48.80;24.47;;;;;;;4.81;100.00;100094.18;3496528;83;27716;-89
2022/12/21 17:23:11;;;;;;;55.55;27.40;;;;;;;4.80;100.00;100098.05;3474242;83;99102;-88
2022/12/21 17:28:15;;;;;;;57.53;27.43;;;;;;;4.79;100.00;100091.80;3453383;84;28301;-88
2022/12/21 17:33:23;;;;;;;62.50;28.95;;;;;;;4.79;100.00;100089.06;3467295;83;98831;-87
2022/12/21 17:38:23;;;;;;;70.08;32.83;;;;;;;4.81;100.00;100085.41;3466810;83;33159;-88
2022/12/21 17:43:24;;;;;;;71.73;30.17;;;;;;;4.80;100.00;100093.38;3459423;83;99388;-89
2022/12/21 17:48:26;;;;;;;59.97;28.50;;;;;;;4.81;100.00;100088.73;3467937;83;26446;-85
2022/12/21 17:53:27;;;;;;;54.48;25.57;;;;;;;4.81;100.00;100086.77;3460278;83;98895;-88
2022/12/21 17:58:28;;;;;;;60.00;28.40;;;;;;;4.82;100.00;100085.66;3465770;83;25900;-86
2022/12/21 18:03:30;;;;;;;64.50;29.33;;;;;;;4.83;100.00;100083.71;3461642;83;99030;-86
2022/12/21 18:08:31;;;;;;;50.10;25.87;;;;;;;4.83;100.00;100069.52;3467280;83;26487;-89
2022/12/21 18:13:33;;;;;;;57.67;25.57;;;;;;;4.83;100.00;100069.52;3458794;83;98983;-88
2022/12/21 18:18:35;;;;;;;55.23;26.60;;;;;;;4.83;100.00;100059.17;3468043;83;26767;-86
2022/12/21 18:23:39;;;;;;;52.47;27.07;;;;;;;4.82;100.00;100054.87;3455464;84;98944;-86
2022/12/21 18:28:40;;;;;;;50.10;26.50;;;;;;;4.81;100.00;100052.70;3458098;84;28669;-88
2022/12/21 18:33:49;;;;;;;52.27;26.73;;;;;;;4.80;100.00;100047.03;3452155;84;98860;-87
2022/12/21 18:38:52;;;;;;;55.90;29.13;;;;;;;4.78;100.00;100048.52;3459840;84;28668;-86
2022/12/21 18:43:53;;;;;;;59.88;30.88;;;;;;;4.75;100.00;100047.86;3451886;82;99148;-86
2022/12/21 18:48:58;;;;;;;69.37;33.50;;;;;;;4.73;100.00;100061.83;3461354;84;26630;-88
2022/12/21 18:53:59;;;;;;;58.20;29.87;;;;;;;4.71;100.00;100053.78;3450847;84;99253;-88
2022/12/21 18:59:00;;;;;;;66.23;33.13;;;;;;;4.71;100.00;100048.33;3455567;84;26384;-87
2022/12/21 19:04:04;;;;;;;57.58;29.55;;;;;;;4.70;100.00;100061.15;3450149;84;98987;-87
2022/12/21 19:09:13;;;;;;;56.42;28.42;;;;;;;4.70;100.00;100052.20;3457063;84;30626;-88
2022/12/21 19:14:22;;;;;;;55.45;27.13;;;;;;;4.71;100.00;100063.31;3451183;84;99024;-86
2022/12/21 19:19:28;;;;;;;55.60;29.03;;;;;;;4.73;100.00;100058.30;3454222;84;29678;-88
2022/12/21 19:24:33;;;;;;;60.30;29.87;;;;;;;4.74;100.00;100057.96;3447577;83;98770;-90
2022/12/21 19:29:34;;;;;;;60.48;31.12;;;;;;;4.77;100.00;100052.39;3456322;84;29919;-90
2022/12/21 19:34:36;;;;;;;56.90;28.37;;;;;;;4.77;100.00;100049.11;3447452;84;98775;-89
2022/12/21 19:39:41;;;;;;;53.75;26.62;;;;;;;4.78;100.00;100045.23;3459147;84;31905;-89
2022/12/21 19:44:42;;;;;;;56.15;26.27;;;;;;;4.81;100.00;100045.11;3447606;84;98942;-88
2022/12/21 19:49:43;;;;;;;53.33;26.50;;;;;;;4.83;100.00;100040.89;3455696;84;26067;-90
2022/12/21 19:54:46;;;;;;;57.93;28.73;;;;;;;4.86;100.00;100046.22;3445519;84;98726;-88
2022/12/21 19:59:48;;;;;;;55.10;28.83;;;;;;;4.86;100.00;100047.00;3450381;84;30627;-87
2022/12/21 20:04:49;;;;;;;56.13;27.00;;;;;;;4.87;100.00;100049.97;3449994;82;98933;-88
2022/12/21 20:09:51;;;;;;;57.23;29.40;;;;;;;4.88;100.00;100041.20;3459084;84;25859;-88
2022/12/21 20:14:52;;;;;;;54.40;25.43;;;;;;;4.90;100.00;100037.55;3450337;83;98825;-87
2022/12/21 20:19:54;;;;;;;59.80;28.20;;;;;;;4.90;100.00;100041.08;3460253;84;25841;-89
2022/12/21 20:24:55;;;;;;;54.17;26.27;;;;;;;4.92;100.00;100048.33;3473848;82;98958;-87
2022/12/21 20:29:59;;;;;;;51.87;25.17;;;;;;;4.94;100.00;100041.98;3488639;83;25881;-87
2022/12/21 20:35:00;;;;;;;56.05;27.52;;;;;;;4.95;100.00;100035.38;3484641;82;98701;-87
2022/12/21 20:40:01;;;;;;;53.00;25.70;;;;;;;4.94;100.00;100028.90;3492379;83;28568;-88
2022/12/21 20:45:03;;;;;;;54.53;28.00;;;;;;;4.94;100.00;100035.16;3485046;82;98985;-88
2022/12/21 20:50:09;;;;;;;62.73;30.00;;;;;;;4.96;100.00;100028.77;3492771;83;26432;-88
2022/12/21 21:00:37;;;;;;;51.53;28.40;;;;;;;4.95;100.00;100008.11;3495703;83;26626;-86
2022/12/21 21:05:39;;;;;;;48.73;26.50;;;;;;;4.98;100.00;100001.16;3491477;82;99011;-87
2022/12/21 21:10:39;;;;;;;61.58;28.40;;;;;;;5.00;100.00;100002.95;3490675;83;32882;-87
2022/12/21 21:15:42;;;;;;;51.27;25.57;;;;;;;5.01;100.00;100016.25;3486922;82;98830;-88
2022/12/21 21:26:02;;;;;;;47.93;25.30;;;;;;;5.02;100.00;100015.69;3502286;83;30994;-85
2022/12/21 21:31:03;;;;;;;48.03;24.60;;;;;;;5.01;100.00;100022.27;3498228;83;99893;-86
2022/12/21 21:36:20;;;;;;;50.57;25.97;;;;;;;5.03;100.00;100022.73;3505917;83;26717;-88
2022/12/21 21:41:40;;;;;;;45.83;24.30;;;;;;;5.03;100.00;100017.27;3500746;82;99130;-88
2022/12/21 21:46:41;;;;;;;42.58;21.82;;;;;;;5.04;100.00;100019.66;3505721;82;32186;-88
2022/12/21 21:51:43;;;;;;;46.90;22.40;;;;;;;5.07;100.00;100003.94;3501073;83;99153;-88
2022/12/21 21:56:53;;;;;;;45.47;22.43;;;;;;;5.10;100.00;100013.36;3506117;83;28405;-87
2022/12/21 22:01:58;;;;;;;48.43;25.17;;;;;;;5.11;100.00;100015.73;3505675;82;99048;-86
2022/12/21 22:07:00;;;;;;;45.92;23.45;;;;;;;5.14;100.00;100011.52;3513033;82;31618;-87
2022/12/21 22:12:01;;;;;;;46.15;22.50;;;;;;;5.16;100.00;100009.23;3502097;82;99138;-88
2022/12/21 22:17:02;;;;;;;44.53;21.33;;;;;;;5.16;100.00;100005.94;3509982;82;25844;-88
2022/12/21 22:32:55;;;;;;;40.63;22.30;;;;;;;5.21;100.00;99989.31;3502730;83;98671;-88
2022/12/21 22:43:17;;;;;;;43.13;21.42;;;;;;;5.22;100.00;99980.54;3503853;82;98583;-88
2022/12/21 22:48:19;;;;;;;41.30;20.80;;;;;;;5.22;100.00;99985.99;3513549;83;26171;-87
2022/12/21 22:53:24;;;;;;;38.17;19.95;;;;;;;5.22;100.00;99991.45;3507086;82;98724;-88
2022/12/21 22:58:38;;;;;;;39.57;19.87;;;;;;;5.24;100.00;99994.64;3516533;82;28597;-90
2022/12/21 23:03:38;;;;;;;38.55;19.80;;;;;;;5.24;100.00;99989.18;3506338;82;98953;-89
2022/12/21 23:08:40;;;;;;;37.90;19.40;;;;;;;5.24;100.00;99989.95;3505868;82;26363;-90
2022/12/21 23:19:00;;;;;;;37.20;18.95;;;;;;;5.26;100.00;99984.16;3510530;83;33119;-88
2022/12/21 23:29:19;;;;;;;37.53;19.00;;;;;;;5.28;100.00;99977.20;3511751;82;26432;-89
2022/12/21 23:45:02;;;;;;;34.88;18.82;;;;;;;5.35;100.00;99974.64;3511113;82;98704;-90
